createdAt,value
2023-01-28T00:00:34.804Z,5.40
2023-01-28T00:01:36.737Z,5.40
2023-01-28T00:02:39.171Z,5.40
2023-01-28T00:03:41.769Z,5.40
2023-01-28T00:04:44.572Z,5.40
2023-01-28T00:05:46.583Z,5.40
2023-01-28T00:06:48.349Z,5.40
2023-01-28T00:07:51.128Z,5.40
2023-01-28T00:08:56.047Z,5.40
2023-01-28T00:09:57.818Z,5.40
2023-01-28T00:11:01.279Z,5.40
2023-01-28T00:12:03.142Z,5.40
2023-01-28T00:13:05.253Z,5.40
2023-01-28T00:14:09.312Z,5.40
2023-01-28T00:15:12.112Z,5.40
2023-01-28T00:16:14.066Z,5.40
2023-01-28T00:17:16.955Z,5.50
2023-01-28T00:18:18.648Z,5.40
2023-01-28T00:19:20.346Z,5.40
2023-01-28T00:20:57.113Z,5.40
2023-01-28T00:21:59.291Z,5.50
2023-01-28T00:23:01.219Z,5.50
2023-01-28T00:24:03.328Z,5.50
2023-01-28T00:25:05.449Z,5.50
2023-01-28T00:26:10.661Z,5.50
2023-01-28T00:27:12.905Z,5.50
2023-01-28T00:28:16.262Z,5.50
2023-01-28T00:29:20.397Z,5.50
2023-01-28T00:30:22.232Z,5.50
2023-01-28T00:31:27.511Z,5.50
2023-01-28T00:32:29.904Z,5.50
2023-01-28T00:33:32.457Z,5.50
2023-01-28T00:34:34.236Z,5.50
2023-01-28T00:35:36.024Z,5.50
2023-01-28T00:36:40.370Z,5.50
2023-01-28T00:37:42.187Z,5.50
2023-01-28T00:38:44.269Z,5.50
2023-01-28T00:39:46.152Z,5.50
2023-01-28T00:40:47.970Z,5.50
2023-01-28T00:41:49.813Z,5.50
2023-01-28T00:42:52.856Z,5.50
2023-01-28T00:43:55.057Z,5.50
2023-01-28T00:44:56.848Z,5.50
2023-01-28T00:45:58.651Z,5.50
2023-01-28T00:47:01.233Z,5.50
2023-01-28T00:48:02.943Z,5.50
2023-01-28T00:49:04.867Z,5.50
2023-01-28T00:50:07.083Z,5.50
2023-01-28T00:51:11.765Z,5.50
2023-01-28T00:52:14.430Z,5.50
2023-01-28T00:53:17.436Z,5.60
2023-01-28T00:54:19.116Z,5.60
2023-01-28T00:55:21.768Z,5.50
2023-01-28T00:56:23.795Z,5.50
2023-01-28T00:57:25.467Z,5.50
2023-01-28T00:58:27.553Z,5.50
2023-01-28T00:59:29.599Z,5.50
2023-01-28T01:00:31.433Z,5.60
2023-01-28T01:01:33.582Z,5.50
2023-01-28T01:02:35.482Z,5.50
2023-01-28T01:03:37.586Z,5.50
2023-01-28T01:04:40.859Z,5.50
2023-01-28T01:05:42.704Z,5.50
2023-01-28T01:06:44.466Z,5.50
2023-01-28T01:07:46.531Z,5.50
2023-01-28T01:08:50.386Z,5.50
2023-01-28T01:09:52.537Z,5.50
2023-01-28T01:10:59.329Z,5.50
2023-01-28T01:12:01.706Z,5.50
2023-01-28T01:13:03.763Z,5.50
2023-01-28T01:14:07.243Z,5.60
2023-01-28T01:15:10.627Z,5.60
2023-01-28T01:16:15.824Z,5.60
2023-01-28T01:17:18.481Z,5.60
2023-01-28T01:18:20.320Z,5.60
2023-01-28T01:19:22.197Z,5.70
2023-01-28T01:20:45.718Z,5.60
2023-01-28T01:21:50.717Z,5.60
2023-01-28T01:22:53.525Z,5.60
2023-01-28T01:23:56.529Z,5.60
2023-01-28T01:24:59.360Z,5.50
2023-01-28T01:26:04.989Z,5.60
2023-01-28T01:27:06.911Z,5.50
2023-01-28T01:28:08.682Z,5.50
2023-01-28T01:29:10.719Z,5.50
2023-01-28T01:30:13.516Z,5.50
2023-01-28T01:31:18.216Z,5.50
2023-01-28T01:32:21.651Z,5.50
2023-01-28T01:33:24.650Z,5.50
2023-01-28T01:34:26.586Z,5.50
2023-01-28T01:35:28.829Z,5.50
2023-01-28T01:36:32.559Z,5.50
2023-01-28T01:37:37.704Z,5.50
2023-01-28T01:38:41.122Z,5.50
2023-01-28T01:39:45.137Z,5.50
2023-01-28T01:40:47.307Z,5.50
2023-01-28T01:41:49.295Z,5.50
2023-01-28T01:42:51.002Z,5.50
2023-01-28T01:44:01.699Z,5.50
2023-01-28T01:45:15.060Z,5.50
2023-01-28T01:46:27.626Z,5.50
2023-01-28T01:47:48.310Z,5.50
2023-01-28T01:48:51.258Z,5.50
2023-01-28T01:49:53.931Z,5.50
2023-01-28T01:51:02.033Z,5.50
2023-01-28T01:52:09.147Z,5.50
2023-01-28T01:53:15.863Z,5.50
2023-01-28T01:54:19.909Z,5.50
2023-01-28T01:55:26.017Z,5.50
2023-01-28T01:56:33.187Z,5.50
2023-01-28T01:57:36.691Z,5.50
2023-01-28T01:58:42.218Z,5.50
2023-01-28T01:59:44.693Z,5.50
2023-01-28T02:00:46.775Z,5.50
2023-01-28T02:01:48.844Z,5.50
2023-01-28T02:02:52.509Z,5.50
2023-01-28T02:04:10.784Z,5.50
2023-01-28T02:05:17.135Z,5.40
2023-01-28T02:06:20.318Z,5.40
2023-01-28T02:07:22.552Z,5.40
2023-01-28T02:08:25.818Z,5.40
2023-01-28T02:09:29.639Z,5.40
2023-01-28T02:10:32.123Z,5.40
2023-01-28T02:11:35.108Z,5.40
2023-01-28T02:12:50.148Z,5.40
2023-01-28T02:13:57.268Z,5.40
2023-01-28T02:15:12.894Z,5.40
2023-01-28T02:16:15.461Z,5.40
2023-01-28T02:17:17.567Z,5.40
2023-01-28T02:18:20.801Z,5.40
2023-01-28T02:19:29.497Z,5.40
2023-01-28T02:20:51.270Z,5.40
2023-01-28T02:22:06.311Z,5.40
2023-01-28T02:23:34.363Z,5.40
2023-01-28T02:25:24.893Z,5.40
2023-01-28T02:26:53.035Z,5.40
2023-01-28T02:28:28.693Z,5.40
2023-01-28T02:29:43.930Z,5.40
2023-01-28T02:30:54.690Z,5.40
2023-01-28T02:32:19.589Z,5.30
2023-01-28T02:33:35.578Z,5.30
2023-01-28T02:34:56.342Z,5.30
2023-01-28T02:36:07.094Z,5.30
2023-01-28T02:37:24.515Z,5.30
2023-01-28T02:38:33.227Z,5.30
2023-01-28T02:39:41.071Z,5.30
2023-01-28T02:41:05.443Z,5.30
2023-01-28T02:42:07.409Z,5.30
2023-01-28T02:43:09.220Z,5.20
2023-01-28T02:44:11.053Z,5.20
2023-01-28T02:45:47.864Z,5.20
2023-01-28T02:47:11.740Z,5.20
2023-01-28T02:48:13.896Z,5.30
2023-01-28T02:49:40.470Z,5.40
2023-01-28T02:51:00.963Z,5.30
2023-01-28T02:52:56.144Z,5.30
2023-01-28T02:54:12.023Z,5.30
2023-01-28T02:55:39.625Z,5.30
2023-01-28T02:59:29.639Z,5.20
2023-01-28T03:00:46.474Z,5.20
2023-01-28T03:01:50.679Z,5.20
2023-01-28T03:03:01.107Z,5.20
2023-01-28T03:04:24.062Z,5.20
2023-01-28T03:05:36.004Z,5.20
2023-01-28T03:06:45.716Z,5.20
2023-01-28T03:07:48.503Z,5.20
2023-01-28T03:09:19.952Z,5.20
2023-01-28T03:10:25.895Z,5.20
2023-01-28T03:11:49.238Z,5.20
2023-01-28T03:13:14.044Z,5.20
2023-01-28T03:14:36.644Z,5.20
2023-01-28T03:16:05.337Z,5.20
2023-01-28T03:17:33.465Z,5.20
2023-01-28T03:19:10.728Z,5.20
2023-01-28T03:20:58.328Z,5.20
2023-01-28T03:22:19.138Z,5.20
2023-01-28T03:23:49.663Z,5.20
2023-01-28T03:25:12.140Z,5.10
2023-01-28T03:26:37.784Z,5.20
2023-01-28T03:28:23.305Z,5.10
2023-01-28T03:29:45.183Z,5.20
2023-01-28T03:31:22.018Z,5.10
2023-01-28T03:32:43.010Z,5.10
2023-01-28T03:34:04.085Z,5.10
2023-01-28T03:35:27.548Z,5.10
2023-01-28T03:36:51.853Z,5.10
2023-01-28T03:37:54.188Z,5.10
2023-01-28T03:38:56.758Z,5.10
2023-01-28T03:40:04.547Z,5.10
2023-01-28T03:41:09.149Z,5.10
2023-01-28T03:42:14.782Z,5.10
2023-01-28T03:43:18.065Z,5.10
2023-01-28T03:44:38.838Z,5.10
2023-01-28T03:45:40.674Z,5.10
2023-01-28T03:46:42.921Z,5.20
2023-01-28T03:47:44.889Z,5.20
2023-01-28T03:48:46.967Z,5.20
2023-01-28T03:49:51.015Z,5.20
2023-01-28T03:50:55.267Z,5.20
2023-01-28T03:51:57.121Z,5.20
2023-01-28T03:53:14.923Z,5.20
2023-01-28T03:54:18.279Z,5.20
2023-01-28T03:55:20.070Z,5.20
2023-01-28T03:56:26.502Z,5.20
2023-01-28T03:57:31.668Z,5.20
2023-01-28T03:58:52.155Z,5.20
2023-01-28T03:59:54.259Z,5.20
2023-01-28T04:00:56.353Z,5.20
2023-01-28T04:01:58.680Z,5.30
2023-01-28T04:03:01.158Z,5.30
2023-01-28T04:04:03.422Z,5.30
2023-01-28T04:05:07.243Z,5.30
2023-01-28T04:06:10.326Z,5.30
2023-01-28T04:07:16.825Z,5.30
2023-01-28T04:08:18.665Z,5.30
2023-01-28T04:09:24.175Z,5.30
2023-01-28T04:10:27.098Z,5.30
2023-01-28T04:11:29.974Z,5.30
2023-01-28T04:12:32.025Z,5.30
2023-01-28T04:13:33.982Z,5.40
2023-01-28T04:14:36.004Z,5.30
2023-01-28T04:15:37.867Z,5.30
2023-01-28T04:16:39.756Z,5.30
2023-01-28T04:17:45.948Z,5.30
2023-01-28T04:18:48.303Z,5.30
2023-01-28T04:19:51.267Z,5.30
2023-01-28T04:20:53.290Z,5.30
2023-01-28T04:21:55.274Z,5.30
2023-01-28T04:22:57.343Z,5.30
2023-01-28T04:24:01.325Z,5.30
2023-01-28T04:25:03.756Z,5.30
2023-01-28T04:26:06.347Z,5.30
2023-01-28T04:27:08.290Z,5.30
2023-01-28T04:28:10.313Z,5.30
2023-01-28T04:29:13.060Z,5.30
2023-01-28T04:30:15.427Z,5.30
2023-01-28T04:31:17.583Z,5.30
2023-01-28T04:32:19.415Z,5.30
2023-01-28T04:33:21.314Z,5.30
2023-01-28T04:34:24.654Z,5.30
2023-01-28T04:35:28.885Z,5.30
2023-01-28T04:36:34.844Z,5.30
2023-01-28T04:37:36.634Z,5.50
2023-01-28T04:38:38.321Z,5.30
2023-01-28T04:39:40.171Z,5.30
2023-01-28T04:40:41.904Z,5.30
2023-01-28T04:41:43.728Z,5.30
2023-01-28T04:42:54.051Z,5.30
2023-01-28T04:43:56.530Z,5.30
2023-01-28T04:44:58.382Z,5.30
2023-01-28T04:46:00.144Z,5.30
2023-01-28T04:47:01.878Z,5.30
2023-01-28T04:48:03.795Z,5.30
2023-01-28T04:49:05.943Z,5.30
2023-01-28T04:50:08.405Z,5.30
2023-01-28T04:51:12.587Z,5.30
2023-01-28T04:52:14.491Z,5.30
2023-01-28T04:53:16.240Z,5.30
2023-01-28T04:54:18.113Z,5.30
2023-01-28T04:55:19.865Z,5.30
2023-01-28T04:56:21.588Z,5.30
2023-01-28T04:57:23.524Z,5.30
2023-01-28T04:58:25.826Z,5.30
2023-01-28T04:59:27.595Z,5.30
2023-01-28T05:00:29.847Z,5.30
2023-01-28T05:01:31.942Z,5.30
2023-01-28T05:02:33.851Z,5.30
2023-01-28T05:03:36.478Z,5.30
2023-01-28T05:04:38.609Z,5.30
2023-01-28T05:05:40.317Z,5.40
2023-01-28T05:06:44.623Z,5.40
2023-01-28T05:07:52.462Z,5.30
2023-01-28T05:08:54.180Z,5.30
2023-01-28T05:09:55.936Z,5.30
2023-01-28T05:10:57.855Z,5.30
2023-01-28T05:12:00.002Z,5.30
2023-01-28T05:13:01.738Z,5.30
2023-01-28T05:14:03.653Z,5.20
2023-01-28T05:15:06.169Z,5.20
2023-01-28T05:16:08.531Z,5.20
2023-01-28T05:17:11.985Z,5.20
2023-01-28T05:18:13.760Z,5.20
2023-01-28T05:19:18.451Z,5.20
2023-01-28T05:20:20.498Z,5.20
2023-01-28T05:21:25.540Z,5.20
2023-01-28T05:22:28.594Z,5.20
2023-01-28T05:23:30.354Z,5.20
2023-01-28T05:24:33.581Z,5.20
2023-01-28T05:25:36.910Z,5.20
2023-01-28T05:26:38.971Z,5.10
2023-01-28T05:27:40.894Z,5.10
2023-01-28T05:28:44.362Z,5.10
2023-01-28T05:29:46.147Z,5.00
2023-01-28T05:30:47.973Z,5.00
2023-01-28T05:31:49.811Z,5.00
2023-01-28T05:32:56.539Z,5.00
2023-01-28T05:33:58.565Z,5.00
2023-01-28T05:35:00.512Z,5.00
2023-01-28T05:36:02.718Z,5.00
2023-01-28T05:37:08.569Z,5.00
2023-01-28T05:38:15.108Z,5.10
2023-01-28T05:39:17.232Z,5.10
2023-01-28T05:40:19.117Z,5.10
2023-01-28T05:41:21.221Z,5.10
2023-01-28T05:42:25.557Z,5.00
2023-01-28T05:43:28.430Z,5.00
2023-01-28T05:44:30.206Z,4.90
2023-01-28T05:45:32.048Z,5.00
2023-01-28T05:46:33.831Z,5.00
2023-01-28T05:47:35.889Z,4.90
2023-01-28T05:48:39.979Z,4.90
2023-01-28T05:49:42.334Z,4.90
2023-01-28T05:50:44.088Z,5.00
2023-01-28T05:51:46.421Z,5.00
2023-01-28T05:52:48.907Z,5.00
2023-01-28T05:53:50.768Z,5.10
2023-01-28T05:54:53.278Z,5.10
2023-01-28T05:55:56.459Z,5.10
2023-01-28T05:56:58.507Z,5.10
2023-01-28T05:58:00.262Z,5.20
2023-01-28T05:59:05.978Z,5.20
2023-01-28T06:00:09.802Z,5.20
2023-01-28T06:01:11.898Z,5.20
2023-01-28T06:02:14.139Z,5.20
2023-01-28T06:03:16.720Z,5.20
2023-01-28T06:04:19.202Z,5.20
2023-01-28T06:05:23.774Z,5.40
2023-01-28T06:06:25.756Z,5.20
2023-01-28T06:07:27.891Z,5.20
2023-01-28T06:08:29.761Z,5.30
2023-01-28T06:09:31.574Z,5.30
2023-01-28T06:10:33.277Z,5.20
2023-01-28T06:11:35.061Z,5.20
2023-01-28T06:12:36.795Z,5.20
2023-01-28T06:13:40.464Z,5.20
2023-01-28T06:14:42.629Z,5.30
2023-01-28T06:15:44.622Z,5.30
2023-01-28T06:16:46.808Z,5.30
2023-01-28T06:17:48.779Z,5.30
2023-01-28T06:18:50.541Z,5.30
2023-01-28T06:19:52.258Z,5.30
2023-01-28T06:20:54.263Z,5.30
2023-01-28T06:21:56.175Z,5.40
2023-01-28T06:22:57.912Z,5.40
2023-01-28T06:24:01.197Z,5.40
2023-01-28T06:25:03.499Z,5.40
2023-01-28T06:26:05.440Z,5.40
2023-01-28T06:27:07.328Z,5.50
2023-01-28T06:28:09.958Z,5.50
2023-01-28T06:29:12.023Z,5.50
2023-01-28T06:30:14.241Z,5.50
2023-01-28T06:31:17.736Z,5.50
2023-01-28T06:32:20.026Z,5.50
2023-01-28T06:33:25.213Z,5.50
2023-01-28T06:34:27.014Z,5.50
2023-01-28T06:35:29.004Z,5.50
2023-01-28T06:36:31.424Z,5.50
2023-01-28T06:37:33.163Z,5.60
2023-01-28T06:38:36.256Z,5.60
2023-01-28T06:39:37.926Z,5.60
2023-01-28T06:40:40.538Z,5.60
2023-01-28T06:41:43.691Z,5.60
2023-01-28T06:42:45.956Z,5.70
2023-01-28T06:43:47.897Z,5.70
2023-01-28T06:44:51.588Z,5.70
2023-01-28T06:45:58.313Z,5.70
2023-01-28T06:47:00.165Z,5.70
2023-01-28T06:48:03.017Z,5.70
2023-01-28T06:49:06.134Z,5.70
2023-01-28T06:50:08.831Z,5.70
2023-01-28T06:51:10.710Z,5.70
2023-01-28T06:52:14.940Z,5.70
2023-01-28T06:53:18.333Z,5.70
2023-01-28T06:54:20.790Z,5.70
2023-01-28T06:55:25.322Z,5.70
2023-01-28T06:56:30.024Z,5.70
2023-01-28T06:57:32.272Z,5.50
2023-01-28T06:58:37.221Z,5.70
2023-01-28T06:59:39.152Z,5.70
2023-01-28T07:00:40.884Z,5.60
2023-01-28T07:01:42.700Z,5.60
2023-01-28T07:02:45.024Z,5.60
2023-01-28T07:03:46.943Z,5.60
2023-01-28T07:04:48.824Z,5.60
2023-01-28T07:05:52.101Z,5.60
2023-01-28T07:06:55.280Z,5.60
2023-01-28T07:07:57.217Z,5.60
2023-01-28T07:08:59.282Z,5.60
2023-01-28T07:10:01.186Z,5.60
2023-01-28T07:11:04.376Z,5.60
2023-01-28T07:12:06.535Z,5.60
2023-01-28T07:13:09.887Z,5.70
2023-01-28T07:14:13.275Z,5.70
2023-01-28T07:15:27.764Z,5.70
2023-01-28T07:16:30.921Z,5.70
2023-01-28T07:17:32.894Z,5.70
2023-01-28T07:18:35.319Z,5.70
2023-01-28T07:19:37.193Z,5.70
2023-01-28T07:20:39.079Z,5.70
2023-01-28T07:21:41.872Z,5.70
2023-01-28T07:22:44.991Z,5.70
2023-01-28T07:23:46.813Z,5.70
2023-01-28T07:24:48.738Z,5.70
2023-01-28T07:25:50.579Z,5.70
2023-01-28T07:26:52.488Z,5.60
2023-01-28T07:27:55.625Z,5.70
2023-01-28T07:28:58.855Z,5.60
2023-01-28T07:30:01.561Z,5.70
2023-01-28T07:31:03.654Z,5.70
2023-01-28T07:32:09.512Z,5.70
2023-01-28T07:33:11.502Z,5.70
2023-01-28T07:34:13.445Z,5.70
2023-01-28T07:35:16.522Z,5.70
2023-01-28T07:36:18.263Z,5.70
2023-01-28T07:37:22.846Z,5.70
2023-01-28T07:38:24.732Z,5.70
2023-01-28T07:39:26.489Z,5.70
2023-01-28T07:40:30.555Z,5.80
2023-01-28T07:41:34.092Z,5.80
2023-01-28T07:42:35.881Z,5.80
2023-01-28T07:43:37.792Z,5.80
2023-01-28T07:44:39.801Z,5.80
2023-01-28T07:45:41.934Z,5.80
2023-01-28T07:46:44.845Z,5.80
2023-01-28T07:48:01.601Z,5.80
2023-01-28T07:49:04.003Z,5.80
2023-01-28T07:50:12.887Z,5.80
2023-01-28T07:51:14.926Z,5.80
2023-01-28T07:52:17.064Z,5.80
2023-01-28T07:53:22.409Z,5.80
2023-01-28T07:54:24.733Z,5.80
2023-01-28T07:55:31.003Z,5.90
2023-01-28T07:56:33.202Z,5.80
2023-01-28T07:57:35.200Z,5.80
2023-01-28T07:58:36.904Z,5.80
2023-01-28T07:59:38.690Z,5.90
2023-01-28T08:00:40.495Z,5.90
2023-01-28T08:01:45.319Z,5.90
2023-01-28T08:02:50.637Z,5.90
2023-01-28T08:03:52.518Z,5.90
2023-01-28T08:04:59.828Z,5.90
2023-01-28T08:06:14.489Z,5.90
2023-01-28T08:07:16.277Z,5.90
2023-01-28T08:08:17.983Z,5.90
2023-01-28T08:09:19.872Z,5.90
2023-01-28T08:10:21.685Z,5.90
2023-01-28T08:11:23.749Z,5.90
2023-01-28T08:12:25.837Z,5.90
2023-01-28T08:13:27.862Z,5.90
2023-01-28T08:14:29.777Z,5.90
2023-01-28T08:15:34.131Z,5.90
2023-01-28T08:16:36.909Z,5.90
2023-01-28T08:17:38.708Z,5.90
2023-01-28T08:18:40.461Z,5.90
2023-01-28T08:19:42.461Z,6.00
2023-01-28T08:20:46.686Z,5.90
2023-01-28T08:22:01.346Z,6.00
2023-01-28T08:23:16.229Z,6.00
2023-01-28T08:24:18.067Z,6.00
2023-01-28T08:25:22.392Z,6.00
2023-01-28T08:26:24.098Z,6.00
2023-01-28T08:27:26.434Z,6.00
2023-01-28T08:28:28.613Z,6.00
2023-01-28T08:29:30.256Z,6.00
2023-01-28T08:30:34.864Z,6.00
2023-01-28T08:31:36.626Z,6.00
2023-01-28T08:32:38.706Z,6.10
2023-01-28T08:33:40.571Z,6.10
2023-01-28T08:34:42.447Z,6.10
2023-01-28T08:35:44.687Z,6.10
2023-01-28T08:36:46.752Z,6.10
2023-01-28T08:37:48.638Z,6.10
2023-01-28T08:38:54.593Z,6.20
2023-01-28T08:39:59.273Z,6.20
2023-01-28T08:41:01.241Z,6.30
2023-01-28T08:42:03.046Z,6.20
2023-01-28T08:43:05.704Z,6.20
2023-01-28T08:44:07.458Z,6.20
2023-01-28T08:45:09.908Z,6.30
2023-01-28T08:46:11.638Z,6.30
2023-01-28T08:47:13.725Z,6.30
2023-01-28T08:48:20.341Z,6.30
2023-01-28T08:49:22.544Z,6.30
2023-01-28T08:50:27.544Z,6.30
2023-01-28T08:51:29.855Z,6.30
2023-01-28T08:52:31.804Z,6.30
2023-01-28T08:53:33.647Z,6.30
2023-01-28T08:54:36.711Z,6.30
2023-01-28T08:55:38.588Z,6.30
2023-01-28T08:56:45.135Z,6.40
2023-01-28T08:57:46.987Z,6.40
2023-01-28T08:58:48.957Z,6.40
2023-01-28T08:59:50.875Z,6.40
2023-01-28T09:00:52.821Z,6.40
2023-01-28T09:01:55.827Z,6.40
2023-01-28T09:02:57.840Z,6.50
2023-01-28T09:03:59.758Z,6.40
2023-01-28T09:05:01.599Z,6.40
2023-01-28T09:06:04.707Z,6.40
2023-01-28T09:07:06.673Z,6.40
2023-01-28T09:08:10.683Z,6.40
2023-01-28T09:09:12.530Z,6.40
2023-01-28T09:10:16.752Z,6.50
2023-01-28T09:11:18.800Z,6.50
2023-01-28T09:12:20.556Z,6.50
2023-01-28T09:13:25.370Z,6.50
2023-01-28T09:14:27.373Z,6.50
2023-01-28T09:15:29.226Z,6.60
2023-01-28T09:16:31.072Z,6.60
2023-01-28T09:17:33.088Z,6.60
2023-01-28T09:18:35.223Z,6.60
2023-01-28T09:21:09.039Z,6.60
2023-01-28T09:22:11.217Z,6.60
2023-01-28T09:23:13.895Z,6.70
2023-01-28T09:24:15.700Z,6.60
2023-01-28T09:25:17.919Z,6.70
2023-01-28T09:26:21.787Z,6.70
2023-01-28T09:27:23.982Z,6.70
2023-01-28T09:28:25.794Z,6.60
2023-01-28T09:29:27.637Z,6.70
2023-01-28T09:30:29.752Z,6.70
2023-01-28T09:31:31.513Z,6.70
2023-01-28T09:32:33.382Z,6.70
2023-01-28T09:33:36.434Z,6.70
2023-01-28T09:34:38.538Z,6.70
2023-01-28T09:35:40.383Z,6.70
2023-01-28T09:36:42.415Z,6.70
2023-01-28T09:37:44.204Z,6.70
2023-01-28T09:38:45.931Z,6.70
2023-01-28T09:39:47.728Z,6.90
2023-01-28T09:40:49.443Z,6.70
2023-01-28T09:42:15.056Z,6.80
2023-01-28T09:43:33.156Z,6.80
2023-01-28T09:44:52.007Z,6.80
2023-01-28T09:45:57.795Z,6.80
2023-01-28T09:47:04.592Z,6.80
2023-01-28T09:48:14.831Z,6.80
2023-01-28T09:49:41.150Z,6.80
2023-01-28T09:50:47.885Z,6.80
2023-01-28T09:51:53.871Z,6.90
2023-01-28T09:53:02.663Z,6.90
2023-01-28T09:54:38.888Z,6.90
2023-01-28T09:55:46.186Z,7.00
2023-01-28T09:56:51.756Z,7.00
2023-01-28T09:57:55.687Z,6.90
2023-01-28T09:59:02.605Z,6.90
2023-01-28T10:00:18.634Z,6.90
2023-01-28T10:01:39.094Z,6.80
2023-01-28T10:02:56.239Z,6.80
2023-01-28T10:04:10.525Z,6.80
2023-01-28T10:05:40.980Z,6.80
2023-01-28T10:06:48.529Z,6.80
2023-01-28T10:08:27.194Z,6.80
2023-01-28T10:09:38.405Z,6.80
2023-01-28T10:10:51.253Z,6.80
2023-01-28T10:12:16.311Z,6.70
2023-01-28T10:13:29.074Z,6.70
2023-01-28T10:14:51.987Z,6.70
2023-01-28T10:16:16.840Z,6.70
2023-01-28T10:17:47.674Z,6.70
2023-01-28T10:18:56.996Z,6.70
2023-01-28T10:20:16.785Z,6.70
2023-01-28T10:21:42.001Z,6.70
2023-01-28T10:23:02.828Z,6.70
2023-01-28T10:24:34.484Z,6.70
2023-01-28T10:25:38.169Z,6.70
2023-01-28T10:26:42.763Z,6.70
2023-01-28T10:27:46.893Z,6.70
2023-01-28T10:28:55.180Z,6.70
2023-01-28T10:29:59.271Z,6.60
2023-01-28T10:31:03.400Z,6.60
2023-01-28T10:32:31.138Z,6.60
2023-01-28T10:33:40.016Z,6.60
2023-01-28T10:34:41.984Z,6.60
2023-01-28T10:35:44.014Z,6.60
2023-01-28T10:36:46.972Z,6.60
2023-01-28T10:37:49.064Z,6.60
2023-01-28T10:38:53.309Z,6.60
2023-01-28T10:39:59.847Z,6.70
2023-01-28T10:41:04.538Z,6.70
2023-01-28T10:42:30.127Z,6.70
2023-01-28T10:43:35.593Z,6.70
2023-01-28T10:44:42.364Z,6.70
2023-01-28T10:46:08.864Z,6.70
2023-01-28T10:47:15.684Z,6.70
2023-01-28T10:48:29.466Z,6.70
2023-01-28T10:49:32.624Z,6.70
2023-01-28T10:50:35.755Z,6.70
2023-01-28T10:51:40.743Z,6.70
2023-01-28T10:53:06.932Z,6.70
2023-01-28T10:54:29.086Z,6.70
2023-01-28T10:55:44.680Z,6.70
2023-01-28T10:56:47.703Z,6.70
2023-01-28T10:57:50.461Z,6.70
2023-01-28T10:59:04.228Z,6.70
2023-01-28T11:00:14.352Z,6.70
2023-01-28T11:01:16.487Z,6.70
2023-01-28T11:02:37.405Z,6.70
2023-01-28T11:03:41.505Z,6.70
2023-01-28T11:04:43.415Z,6.70
2023-01-28T11:05:52.480Z,6.70
2023-01-28T11:06:55.410Z,6.70
2023-01-28T11:08:27.406Z,6.70
2023-01-28T11:09:38.162Z,6.70
2023-01-28T11:10:40.627Z,6.70
2023-01-28T11:11:42.288Z,6.70
2023-01-28T11:12:54.729Z,6.70
2023-01-28T11:13:58.794Z,6.70
2023-01-28T11:15:05.859Z,6.70
2023-01-28T11:16:18.862Z,6.80
2023-01-28T11:17:25.382Z,6.80
2023-01-28T11:18:33.679Z,6.80
2023-01-28T11:20:59.465Z,6.80
2023-01-28T11:22:02.074Z,6.80
2023-01-28T11:23:04.083Z,6.80
2023-01-28T11:24:20.116Z,6.80
2023-01-28T11:25:30.280Z,6.80
2023-01-28T11:26:36.262Z,6.90
2023-01-28T11:27:38.125Z,6.80
2023-01-28T11:28:43.665Z,6.80
2023-01-28T11:29:45.828Z,6.80
2023-01-28T11:30:54.324Z,6.80
2023-01-28T11:31:57.085Z,6.80
2023-01-28T11:33:11.015Z,6.80
2023-01-28T11:34:18.185Z,6.80
2023-01-28T11:35:31.134Z,6.80
2023-01-28T11:36:35.326Z,6.80
2023-01-28T11:37:37.975Z,6.80
2023-01-28T11:38:54.211Z,6.80
2023-01-28T11:40:21.542Z,6.80
2023-01-28T11:41:32.879Z,6.80
2023-01-28T11:42:35.666Z,6.90
2023-01-28T11:43:39.872Z,6.90
2023-01-28T11:44:42.430Z,6.80
2023-01-28T11:46:05.395Z,6.50
2023-01-28T11:47:39.773Z,6.80
2023-01-28T11:49:00.921Z,6.80
2023-01-28T11:50:36.237Z,6.80
2023-01-28T11:51:54.797Z,6.80
2023-01-28T11:53:40.695Z,6.80
2023-01-28T11:55:15.428Z,6.60
2023-01-28T11:56:37.208Z,6.70
2023-01-28T11:57:50.857Z,6.70
2023-01-28T11:58:53.194Z,6.70
2023-01-28T12:00:11.532Z,6.70
2023-01-28T12:01:34.133Z,6.70
2023-01-28T12:02:52.045Z,6.60
2023-01-28T12:04:17.667Z,6.60
2023-01-28T12:05:31.356Z,6.60
2023-01-28T12:06:49.205Z,6.60
2023-01-28T12:08:17.551Z,6.60
2023-01-28T12:09:43.109Z,6.70
2023-01-28T12:11:18.532Z,6.70
2023-01-28T12:13:06.414Z,6.70
2023-01-28T12:14:19.031Z,6.70
2023-01-28T12:15:25.565Z,6.60
2023-01-28T12:16:46.264Z,6.60
2023-01-28T12:18:03.828Z,6.60
2023-01-28T12:19:42.620Z,6.50
2023-01-28T12:21:08.632Z,6.50
2023-01-28T12:22:28.858Z,6.70
2023-01-28T12:23:38.887Z,6.50
2023-01-28T12:25:07.844Z,6.50
2023-01-28T12:26:19.059Z,6.50
2023-01-28T12:27:48.198Z,6.50
2023-01-28T12:29:17.756Z,6.50
2023-01-28T12:30:51.871Z,6.50
2023-01-28T12:32:16.272Z,6.50
2023-01-28T12:33:50.771Z,6.50
2023-01-28T12:35:06.201Z,6.50
2023-01-28T12:36:16.690Z,6.50
2023-01-28T12:37:36.693Z,6.50
2023-01-28T12:39:14.254Z,6.50
2023-01-28T12:40:45.212Z,6.50
2023-01-28T12:42:04.395Z,6.50
2023-01-28T12:43:11.337Z,6.50
2023-01-28T12:44:47.784Z,6.50
2023-01-28T12:45:57.998Z,6.50
2023-01-28T12:47:10.324Z,6.50
2023-01-28T12:48:20.959Z,6.60
2023-01-28T12:50:02.341Z,6.60
2023-01-28T12:51:12.273Z,6.60
2023-01-28T12:52:32.913Z,6.60
2023-01-28T12:53:49.910Z,6.60
2023-01-28T12:55:03.518Z,6.60
2023-01-28T12:56:17.119Z,6.60
2023-01-28T12:57:32.158Z,6.60
2023-01-28T12:58:43.577Z,6.60
2023-01-28T13:00:04.257Z,6.70
2023-01-28T13:01:11.340Z,6.60
2023-01-28T13:02:13.246Z,6.70
2023-01-28T13:03:28.407Z,6.70
2023-01-28T13:04:42.553Z,6.70
2023-01-28T13:05:57.772Z,6.70
2023-01-28T13:07:18.311Z,6.70
2023-01-28T13:08:22.600Z,6.70
2023-01-28T13:09:28.799Z,6.50
2023-01-28T13:10:41.994Z,6.70
2023-01-28T13:11:45.452Z,6.60
2023-01-28T13:12:48.492Z,6.70
2023-01-28T13:13:53.476Z,6.60
2023-01-28T13:14:55.514Z,6.60
2023-01-28T13:15:57.815Z,6.60
2023-01-28T13:17:12.897Z,6.60
2023-01-28T13:18:48.215Z,6.60
2023-01-28T13:20:17.907Z,6.50
2023-01-28T13:21:25.611Z,6.60
2023-01-28T13:22:28.890Z,6.60
2023-01-28T13:23:48.771Z,6.60
2023-01-28T13:24:50.583Z,6.60
2023-01-28T13:25:54.751Z,6.60
2023-01-28T13:26:57.501Z,6.60
2023-01-28T13:28:05.633Z,6.60
2023-01-28T13:29:43.967Z,6.50
2023-01-28T13:30:49.908Z,6.50
2023-01-28T13:31:54.587Z,6.50
2023-01-28T13:32:59.438Z,6.50
2023-01-28T13:34:04.355Z,6.50
2023-01-28T13:35:28.069Z,6.50
2023-01-28T13:36:46.104Z,6.50
2023-01-28T13:37:48.730Z,6.60
2023-01-28T13:39:00.881Z,6.50
2023-01-28T13:40:07.046Z,6.50
2023-01-28T13:41:08.733Z,6.50
2023-01-28T13:42:29.204Z,6.50
2023-01-28T13:43:40.104Z,6.60
2023-01-28T13:44:42.290Z,6.60
2023-01-28T13:45:54.993Z,6.70
2023-01-28T13:47:07.666Z,6.60
2023-01-28T13:48:33.584Z,6.60
2023-01-28T13:49:40.873Z,6.60
2023-01-28T13:50:43.826Z,6.60
2023-01-28T13:51:58.718Z,6.60
2023-01-28T13:53:07.454Z,6.60
2023-01-28T13:54:17.588Z,6.60
2023-01-28T13:55:42.827Z,6.60
2023-01-28T13:57:15.117Z,6.60
2023-01-28T13:58:34.928Z,6.70
2023-01-28T14:00:09.739Z,6.70
2023-01-28T14:01:17.839Z,6.80
2023-01-28T14:02:35.051Z,6.60
2023-01-28T14:04:05.225Z,6.60
2023-01-28T14:05:22.120Z,6.60
2023-01-28T14:06:45.075Z,6.60
2023-01-28T14:08:02.383Z,6.60
2023-01-28T14:09:49.742Z,6.60
2023-01-28T14:11:16.689Z,6.60
2023-01-28T14:12:45.815Z,6.60
2023-01-28T14:14:17.437Z,6.60
2023-01-28T14:15:32.504Z,6.60
2023-01-28T14:16:55.827Z,6.60
2023-01-28T14:17:58.959Z,6.60
2023-01-28T14:19:02.631Z,6.60
2023-01-28T14:20:05.605Z,6.60
2023-01-28T14:21:17.085Z,6.60
2023-01-28T14:22:22.530Z,6.60
2023-01-28T14:23:26.993Z,6.50
2023-01-28T14:24:30.375Z,6.50
2023-01-28T14:25:53.367Z,6.50
2023-01-28T14:27:13.637Z,6.60
2023-01-28T14:28:35.704Z,6.60
2023-01-28T14:30:03.658Z,6.60
2023-01-28T14:31:11.461Z,6.60
2023-01-28T14:32:16.687Z,6.50
2023-01-28T14:33:18.532Z,6.60
2023-01-28T14:34:31.228Z,6.60
2023-01-28T14:35:35.160Z,6.60
2023-01-28T14:36:43.259Z,6.60
2023-01-28T14:37:46.734Z,6.50
2023-01-28T14:38:49.088Z,6.50
2023-01-28T14:40:04.387Z,6.50
2023-01-28T14:41:07.991Z,6.50
2023-01-28T14:42:22.095Z,6.60
2023-01-28T14:43:27.459Z,6.60
2023-01-28T14:44:41.146Z,6.60
2023-01-28T14:45:51.612Z,6.60
2023-01-28T14:47:19.120Z,6.60
2023-01-28T14:48:41.973Z,6.60
2023-01-28T14:50:01.101Z,6.50
2023-01-28T14:51:38.339Z,6.50
2023-01-28T14:53:00.661Z,6.50
2023-01-28T14:54:30.587Z,6.50
2023-01-28T14:55:41.990Z,6.50
2023-01-28T14:57:03.090Z,6.40
2023-01-28T14:58:11.796Z,6.40
2023-01-28T14:59:18.357Z,6.40
2023-01-28T15:00:29.279Z,6.40
2023-01-28T15:01:32.188Z,6.40
2023-01-28T15:02:34.114Z,6.40
2023-01-28T15:03:36.036Z,6.40
2023-01-28T15:04:38.064Z,6.40
2023-01-28T15:05:39.996Z,6.40
2023-01-28T15:06:42.158Z,6.40
2023-01-28T15:07:46.643Z,6.40
2023-01-28T15:08:48.552Z,6.40
2023-01-28T15:10:36.167Z,6.40
2023-01-28T15:11:41.227Z,6.40
2023-01-28T15:12:48.896Z,6.40
2023-01-28T15:13:55.436Z,6.40